sensor_id;sensor_type;location;lat;lon;timestamp;pressure;altitude;pressure_sealevel;temperature;humidity
75317;BME280;63913;51.492;10.368;2022-10-23T00:01:22;98515.72;;;11.28;86.47
75317;BME280;63913;51.492;10.368;2022-10-23T00:04:07;98518.34;;;11.30;86.09
75317;BME280;63913;51.492;10.368;2022-10-23T00:06:34;98512.38;;;11.32;85.98
75317;BME280;63913;51.492;10.368;2022-10-23T00:09:01;98517.53;;;11.32;86.28
75317;BME280;63913;51.492;10.368;2022-10-23T00:11:28;98526.16;;;11.34;86.61
75317;BME280;63913;51.492;10.368;2022-10-23T00:13:56;98532.22;;;11.38;86.58
75317;BME280;63913;51.492;10.368;2022-10-23T00:16:22;98534.75;;;11.36;86.04
75317;BME280;63913;51.492;10.368;2022-10-23T00:18:47;98527.03;;;11.35;86.49
75317;BME280;63913;51.492;10.368;2022-10-23T00:21:14;98518.44;;;11.34;86.26
75317;BME280;63913;51.492;10.368;2022-10-23T00:23:41;98526.16;;;11.34;85.79
75317;BME280;63913;51.492;10.368;2022-10-23T00:26:07;98523.56;;;11.33;85.97
75317;BME280;63913;51.492;10.368;2022-10-23T00:28:35;98527.78;;;11.31;86.34
75317;BME280;63913;51.492;10.368;2022-10-23T00:31:02;98521.84;;;11.33;86.32
75317;BME280;63913;51.492;10.368;2022-10-23T00:33:28;98514.88;;;11.29;86.22
75317;BME280;63913;51.492;10.368;2022-10-23T00:35:53;98515.78;;;11.31;85.81
75317;BME280;63913;51.492;10.368;2022-10-23T00:38:19;98525.19;;;11.29;86.17
75317;BME280;63913;51.492;10.368;2022-10-23T00:40:44;98518.28;;;11.27;85.55
75317;BME280;63913;51.492;10.368;2022-10-23T00:43:24;98527.66;;;11.23;85.48
75317;BME280;63913;51.492;10.368;2022-10-23T00:45:50;98526.75;;;11.21;85.53
75317;BME280;63913;51.492;10.368;2022-10-23T00:48:16;98527.59;;;11.22;85.37
75317;BME280;63913;51.492;10.368;2022-10-23T00:50:42;98519.00;;;11.21;85.00
75317;BME280;63913;51.492;10.368;2022-10-23T00:53:09;98513.81;;;11.18;86.07
75317;BME280;63913;51.492;10.368;2022-10-23T00:55:36;98510.34;;;11.16;85.53
75317;BME280;63913;51.492;10.368;2022-10-23T00:58:03;98522.16;;;11.06;85.39
75317;BME280;63913;51.492;10.368;2022-10-23T01:00:45;98524.69;;;11.05;86.23
75317;BME280;63913;51.492;10.368;2022-10-23T01:03:13;98517.81;;;11.04;85.88
75317;BME280;63913;51.492;10.368;2022-10-23T01:05:45;98522.94;;;11.04;85.40
75317;BME280;63913;51.492;10.368;2022-10-23T01:08:31;98525.53;;;11.04;86.13
75317;BME280;63913;51.492;10.368;2022-10-23T01:11:06;98525.53;;;11.04;86.13
75317;BME280;63913;51.492;10.368;2022-10-23T01:14:38;98523.84;;;11.06;86.60
75317;BME280;63913;51.492;10.368;2022-10-23T01:21:46;98523.09;;;11.12;86.43
75317;BME280;63913;51.492;10.368;2022-10-23T01:27:21;98506.88;;;11.14;85.95
75317;BME280;63913;51.492;10.368;2022-10-23T01:32:38;98496.66;;;11.17;86.68
75317;BME280;63913;51.492;10.368;2022-10-23T01:35:13;98503.59;;;11.23;86.44
75317;BME280;63913;51.492;10.368;2022-10-23T01:37:45;98502.88;;;11.30;86.87
75317;BME280;63913;51.492;10.368;2022-10-23T01:40:26;98499.47;;;11.31;86.75
75317;BME280;63913;51.492;10.368;2022-10-23T01:42:54;98496.97;;;11.34;86.88
75317;BME280;63913;51.492;10.368;2022-10-23T01:45:29;98492.69;;;11.36;87.06
75317;BME280;63913;51.492;10.368;2022-10-23T01:47:59;98485.88;;;11.38;86.62
75317;BME280;63913;51.492;10.368;2022-10-23T01:50:27;98483.41;;;11.44;86.15
75317;BME280;63913;51.492;10.368;2022-10-23T01:52:54;98481.78;;;11.47;86.70
75317;BME280;63913;51.492;10.368;2022-10-23T01:55:20;98477.50;;;11.48;86.28
75317;BME280;63913;51.492;10.368;2022-10-23T01:57:47;98472.28;;;11.45;85.72
75317;BME280;63913;51.492;10.368;2022-10-23T02:00:16;98480.84;;;11.42;85.88
75317;BME280;63913;51.492;10.368;2022-10-23T02:02:42;98472.25;;;11.43;85.96
75317;BME280;63913;51.492;10.368;2022-10-23T02:05:16;98477.44;;;11.45;86.34
75317;BME280;63913;51.492;10.368;2022-10-23T02:07:43;98487.72;;;11.45;85.13
75317;BME280;63913;51.492;10.368;2022-10-23T02:10:09;98489.34;;;11.40;85.67
75317;BME280;63913;51.492;10.368;2022-10-23T02:15:11;98480.69;;;11.35;85.74
75317;BME280;63913;51.492;10.368;2022-10-23T02:20:22;98464.28;;;11.30;85.46
75317;BME280;63913;51.492;10.368;2022-10-23T02:23:18;98469.38;;;11.28;85.42
75317;BME280;63913;51.492;10.368;2022-10-23T02:26:09;98465.81;;;11.20;85.57
75317;BME280;63913;51.492;10.368;2022-10-23T02:28:44;98459.78;;;11.18;85.27
75317;BME280;63913;51.492;10.368;2022-10-23T02:31:13;98465.66;;;11.13;84.99
75317;BME280;63913;51.492;10.368;2022-10-23T02:33:42;98464.72;;;11.07;85.11
75317;BME280;63913;51.492;10.368;2022-10-23T02:36:08;98464.69;;;11.06;85.89
75317;BME280;63913;51.492;10.368;2022-10-23T02:38:40;98462.09;;;11.06;85.60
75317;BME280;63913;51.492;10.368;2022-10-23T02:43:49;98468.84;;;10.99;85.17
75317;BME280;63913;51.492;10.368;2022-10-23T02:46:56;98461.00;;;10.93;85.52
75317;BME280;63913;51.492;10.368;2022-10-23T02:51:56;98468.56;;;10.86;84.41
75317;BME280;63913;51.492;10.368;2022-10-23T02:57:17;98465.84;;;10.80;85.47
75317;BME280;63913;51.492;10.368;2022-10-23T02:59:48;98467.41;;;10.71;85.96
75317;BME280;63913;51.492;10.368;2022-10-23T03:02:31;98463.94;;;10.71;85.04
75317;BME280;63913;51.492;10.368;2022-10-23T03:05:00;98457.09;;;10.70;85.06
75317;BME280;63913;51.492;10.368;2022-10-23T03:07:27;98453.50;;;10.63;85.25
75317;BME280;63913;51.492;10.368;2022-10-23T03:09:52;98448.41;;;10.65;85.46
75317;BME280;63913;51.492;10.368;2022-10-23T03:12:17;98448.38;;;10.62;85.41
75317;BME280;63913;51.492;10.368;2022-10-23T03:14:43;98451.84;;;10.65;85.76
75317;BME280;63913;51.492;10.368;2022-10-23T03:17:08;98444.91;;;10.61;86.06
75317;BME280;63913;51.492;10.368;2022-10-23T03:19:34;98444.03;;;10.61;85.66
75317;BME280;63913;51.492;10.368;2022-10-23T03:21:59;98445.56;;;10.51;84.79
75317;BME280;63913;51.492;10.368;2022-10-23T03:24:24;98447.22;;;10.49;84.81
75317;BME280;63913;51.492;10.368;2022-10-23T03:26:50;98440.16;;;10.41;84.55
75317;BME280;63913;51.492;10.368;2022-10-23T03:29:15;98430.47;;;10.27;84.82
75317;BME280;63913;51.492;10.368;2022-10-23T03:31:40;98430.47;;;10.27;85.22
75317;BME280;63913;51.492;10.368;2022-10-23T03:34:06;98439.03;;;10.28;85.88
75317;BME280;63913;51.492;10.368;2022-10-23T03:36:35;98446.78;;;10.29;85.29
75317;BME280;63913;51.492;10.368;2022-10-23T03:39:00;98434.78;;;10.30;85.16
75317;BME280;63913;51.492;10.368;2022-10-23T03:41:26;98434.91;;;10.35;85.04
75317;BME280;63913;51.492;10.368;2022-10-23T03:43:51;98431.38;;;10.31;85.38
75317;BME280;63913;51.492;10.368;2022-10-23T03:46:16;98429.69;;;10.31;85.14
75317;BME280;63913;51.492;10.368;2022-10-23T03:48:42;98434.78;;;10.28;85.04
75317;BME280;63913;51.492;10.368;2022-10-23T03:51:07;98438.22;;;10.29;85.41
75317;BME280;63913;51.492;10.368;2022-10-23T03:53:33;98451.13;;;10.32;85.29
75317;BME280;63913;51.492;10.368;2022-10-23T03:55:58;98445.06;;;10.28;85.34
75317;BME280;63913;51.492;10.368;2022-10-23T03:58:23;98442.47;;;10.28;85.59
75317;BME280;63913;51.492;10.368;2022-10-23T04:00:49;98432.22;;;10.28;85.44
75317;BME280;63913;51.492;10.368;2022-10-23T04:03:14;98431.19;;;10.22;84.26
75317;BME280;63913;51.492;10.368;2022-10-23T04:05:40;98432.81;;;10.18;85.15
75317;BME280;63913;51.492;10.368;2022-10-23T04:08:06;98441.38;;;10.17;84.69
75317;BME280;63913;51.492;10.368;2022-10-23T04:10:31;98434.22;;;10.07;85.03
75317;BME280;63913;51.492;10.368;2022-10-23T04:12:56;98436.75;;;10.06;85.09
75317;BME280;63913;51.492;10.368;2022-10-23T04:15:22;98438.44;;;10.04;84.84
75317;BME280;63913;51.492;10.368;2022-10-23T04:17:47;98440.06;;;10.00;85.29
75317;BME280;63913;51.492;10.368;2022-10-23T04:20:12;98440.06;;;10.00;85.65
75317;BME280;63913;51.492;10.368;2022-10-23T04:22:40;98441.66;;;9.95;85.61
75317;BME280;63913;51.492;10.368;2022-10-23T04:25:05;98441.63;;;9.93;85.39
75317;BME280;63913;51.492;10.368;2022-10-23T04:27:31;98437.31;;;9.92;86.07
75317;BME280;63913;51.492;10.368;2022-10-23T04:29:58;98430.41;;;9.90;86.04
75317;BME280;63913;51.492;10.368;2022-10-23T04:32:23;98420.00;;;9.84;86.26
75317;BME280;63913;51.492;10.368;2022-10-23T04:34:49;98423.34;;;9.81;86.24
75317;BME280;63913;51.492;10.368;2022-10-23T04:37:14;98429.16;;;9.74;86.91
75317;BME280;63913;51.492;10.368;2022-10-23T04:39:39;98421.47;;;9.73;87.14
75317;BME280;63913;51.492;10.368;2022-10-23T04:42:04;98427.25;;;9.66;87.35
75317;BME280;63913;51.492;10.368;2022-10-23T04:44:30;98421.28;;;9.67;87.29
75317;BME280;63913;51.492;10.368;2022-10-23T04:46:55;98420.47;;;9.68;87.45
75317;BME280;63913;51.492;10.368;2022-10-23T04:49:20;98420.47;;;9.68;87.04
75317;BME280;63913;51.492;10.368;2022-10-23T04:51:46;98425.53;;;9.66;87.38
75317;BME280;63913;51.492;10.368;2022-10-23T04:54:11;98424.66;;;9.64;87.23
75317;BME280;63913;51.492;10.368;2022-10-23T04:56:36;98419.59;;;9.67;87.54
75317;BME280;63913;51.492;10.368;2022-10-23T04:59:02;98410.19;;;9.68;87.33
75317;BME280;63913;51.492;10.368;2022-10-23T05:01:27;98415.28;;;9.65;87.26
75317;BME280;63913;51.492;10.368;2022-10-23T05:03:52;98415.03;;;9.55;88.50
75317;BME280;63913;51.492;10.368;2022-10-23T05:06:18;98410.78;;;9.57;88.16
75317;BME280;63913;51.492;10.368;2022-10-23T05:08:44;98413.34;;;9.56;87.89
75317;BME280;63913;51.492;10.368;2022-10-23T05:11:09;98406.47;;;9.55;88.23
75317;BME280;63913;51.492;10.368;2022-10-23T05:13:34;98415.91;;;9.57;88.34
75317;BME280;63913;51.492;10.368;2022-10-23T05:16:00;98408.25;;;9.59;88.01
75317;BME280;63913;51.492;10.368;2022-10-23T05:18:29;98405.88;;;9.67;87.93
75317;BME280;63913;51.492;10.368;2022-10-23T05:21:01;98395.66;;;9.68;88.26
75317;BME280;63913;51.492;10.368;2022-10-23T05:23:31;98398.25;;;9.70;87.91
75317;BME280;63913;51.492;10.368;2022-10-23T05:25:58;98398.31;;;9.71;87.39
75317;BME280;63913;51.492;10.368;2022-10-23T05:28:24;98388.03;;;9.71;88.15
75317;BME280;63913;51.492;10.368;2022-10-23T05:30:49;98400.09;;;9.75;88.35
75317;BME280;63913;51.492;10.368;2022-10-23T05:33:15;98394.97;;;9.75;88.23
75317;BME280;63913;51.492;10.368;2022-10-23T05:35:43;98391.53;;;9.75;88.11
75317;BME280;63913;51.492;10.368;2022-10-23T05:38:09;98392.44;;;9.77;87.67
75317;BME280;63913;51.492;10.368;2022-10-23T05:40:35;98394.25;;;9.81;87.62
75317;BME280;63913;51.492;10.368;2022-10-23T05:43:00;98396.00;;;9.83;87.69
75317;BME280;63913;51.492;10.368;2022-10-23T05:45:26;98392.69;;;9.87;87.33
75317;BME280;63913;51.492;10.368;2022-10-23T05:47:51;98402.94;;;9.86;87.14
75317;BME280;63913;51.492;10.368;2022-10-23T05:50:17;98408.06;;;9.86;87.53
75317;BME280;63913;51.492;10.368;2022-10-23T05:52:45;98404.72;;;9.90;87.16
75317;BME280;63913;51.492;10.368;2022-10-23T05:55:10;98409.13;;;9.94;87.27
75317;BME280;63913;51.492;10.368;2022-10-23T05:57:36;98404.91;;;9.98;87.36
75317;BME280;63913;51.492;10.368;2022-10-23T06:00:01;98396.44;;;10.02;87.09
75317;BME280;63913;51.492;10.368;2022-10-23T06:02:26;98405.94;;;10.06;86.80
75317;BME280;63913;51.492;10.368;2022-10-23T06:04:52;98401.66;;;10.06;87.11
75317;BME280;63913;51.492;10.368;2022-10-23T06:07:22;98410.28;;;10.08;86.99
75317;BME280;63913;51.492;10.368;2022-10-23T06:09:48;98402.53;;;10.05;86.85
75317;BME280;63913;51.492;10.368;2022-10-23T06:12:13;98394.84;;;10.07;86.76
75317;BME280;63913;51.492;10.368;2022-10-23T06:14:38;98395.88;;;10.13;86.44
75317;BME280;63913;51.492;10.368;2022-10-23T06:17:04;98401.91;;;10.17;86.37
75317;BME280;63913;51.492;10.368;2022-10-23T06:19:29;98407.13;;;10.18;86.66
75317;BME280;63913;51.492;10.368;2022-10-23T06:21:54;98399.31;;;10.15;86.49
75317;BME280;63913;51.492;10.368;2022-10-23T06:24:20;98403.72;;;10.19;86.73
75317;BME280;63913;51.492;10.368;2022-10-23T06:26:45;98406.44;;;10.25;86.51
75317;BME280;63913;51.492;10.368;2022-10-23T06:29:10;98395.41;;;10.31;86.52
75317;BME280;63913;51.492;10.368;2022-10-23T06:31:36;98397.25;;;10.38;86.98
75317;BME280;63913;51.492;10.368;2022-10-23T06:34:01;98392.13;;;10.37;86.29
75317;BME280;63913;51.492;10.368;2022-10-23T06:36:26;98400.75;;;10.40;86.14
75317;BME280;63913;51.492;10.368;2022-10-23T06:38:52;98392.31;;;10.46;86.47
75317;BME280;63913;51.492;10.368;2022-10-23T06:41:19;98388.97;;;10.50;85.83
75317;BME280;63913;51.492;10.368;2022-10-23T06:43:50;98395.81;;;10.49;85.21
75317;BME280;63913;51.492;10.368;2022-10-23T06:46:16;98405.13;;;10.44;85.13
75317;BME280;63913;51.492;10.368;2022-10-23T06:48:43;98399.84;;;10.37;85.63
75317;BME280;63913;51.492;10.368;2022-10-23T06:51:11;98395.41;;;10.31;85.24
75317;BME280;63913;51.492;10.368;2022-10-23T06:53:36;98388.41;;;10.24;85.63
75317;BME280;63913;51.492;10.368;2022-10-23T06:56:04;98378.78;;;10.17;86.11
75317;BME280;63913;51.492;10.368;2022-10-23T06:58:30;98374.31;;;10.08;85.79
75317;BME280;63913;51.492;10.368;2022-10-23T07:00:59;98375.94;;;10.03;86.03
75317;BME280;63913;51.492;10.368;2022-10-23T07:03:24;98380.91;;;9.95;86.03
75317;BME280;63913;51.492;10.368;2022-10-23T07:05:50;98377.47;;;9.95;86.24
75317;BME280;63913;51.492;10.368;2022-10-23T07:08:15;98387.78;;;9.97;86.29
75317;BME280;63913;51.492;10.368;2022-10-23T07:10:40;98386.81;;;9.93;86.24
75317;BME280;63913;51.492;10.368;2022-10-23T07:13:10;98380.81;;;9.92;86.37
75317;BME280;63913;51.492;10.368;2022-10-23T07:15:35;98376.47;;;9.90;86.34
75317;BME280;63913;51.492;10.368;2022-10-23T07:18:01;98372.03;;;9.83;86.88
75317;BME280;63913;51.492;10.368;2022-10-23T07:20:26;98375.34;;;9.77;87.34
75317;BME280;63913;51.492;10.368;2022-10-23T07:22:53;98377.78;;;9.71;87.29
75317;BME280;63913;51.492;10.368;2022-10-23T07:25:20;98372.72;;;9.76;87.32
75317;BME280;63913;51.492;10.368;2022-10-23T07:27:46;98366.72;;;9.75;87.64
75317;BME280;63913;51.492;10.368;2022-10-23T07:30:12;98370.94;;;9.72;88.59
75317;BME280;63913;51.492;10.368;2022-10-23T07:32:38;98367.69;;;9.79;87.82
75317;BME280;63913;51.492;10.368;2022-10-23T07:35:03;98378.16;;;9.88;88.32
75317;BME280;63913;51.492;10.368;2022-10-23T07:37:29;98382.56;;;9.93;87.86
75317;BME280;63913;51.492;10.368;2022-10-23T07:39:55;98371.59;;;10.01;88.07
75317;BME280;63913;51.492;10.368;2022-10-23T07:42:20;98364.75;;;10.01;87.98
75317;BME280;63913;51.492;10.368;2022-10-23T07:44:45;98376.97;;;10.11;87.96
75317;BME280;63913;51.492;10.368;2022-10-23T07:47:11;98372.94;;;10.22;87.72
75317;BME280;63913;51.492;10.368;2022-10-23T07:49:36;98368.88;;;10.32;87.66
75317;BME280;63913;51.492;10.368;2022-10-23T07:52:04;98371.59;;;10.40;86.94
75317;BME280;63913;51.492;10.368;2022-10-23T07:54:29;98361.41;;;10.43;87.34
75317;BME280;63913;51.492;10.368;2022-10-23T07:56:54;98363.31;;;10.53;87.45
75317;BME280;63913;51.492;10.368;2022-10-23T07:59:19;98363.50;;;10.62;86.90
75317;BME280;63913;51.492;10.368;2022-10-23T08:01:45;98374.78;;;10.68;86.72
75317;BME280;63913;51.492;10.368;2022-10-23T08:04:12;98370.69;;;10.78;86.76
75317;BME280;63913;51.492;10.368;2022-10-23T08:06:37;98368.13;;;10.80;86.04
75317;BME280;63913;51.492;10.368;2022-10-23T08:09:03;98352.84;;;10.87;86.46
75317;BME280;63913;51.492;10.368;2022-10-23T08:11:28;98362.44;;;10.96;86.70
75317;BME280;63913;51.492;10.368;2022-10-23T08:14:00;98341.97;;;11.03;86.41
75317;BME280;63913;51.492;10.368;2022-10-23T08:16:30;98358.44;;;11.13;85.73
75317;BME280;63913;51.492;10.368;2022-10-23T08:18:56;98357.78;;;11.23;86.03
75317;BME280;63913;51.492;10.368;2022-10-23T08:21:21;98362.19;;;11.30;86.01
75317;BME280;63913;51.492;10.368;2022-10-23T08:23:47;98364.94;;;11.39;85.03
75317;BME280;63913;51.492;10.368;2022-10-23T08:26:12;98354.69;;;11.44;84.94
75317;BME280;63913;51.492;10.368;2022-10-23T08:28:38;98353.97;;;11.53;85.32
75317;BME280;63913;51.492;10.368;2022-10-23T08:31:11;98343.75;;;11.57;84.94
75317;BME280;63913;51.492;10.368;2022-10-23T08:33:37;98328.38;;;11.62;85.44
75317;BME280;63913;51.492;10.368;2022-10-23T08:36:03;98330.22;;;11.70;86.00
75317;BME280;63913;51.492;10.368;2022-10-23T08:38:29;98336.34;;;11.77;85.41
75317;BME280;63913;51.492;10.368;2022-10-23T08:40:54;98338.19;;;11.84;84.85
75317;BME280;63913;51.492;10.368;2022-10-23T08:43:33;98327.13;;;11.93;84.97
75317;BME280;63913;51.492;10.368;2022-10-23T08:46:13;98334.94;;;11.97;84.17
75317;BME280;63913;51.492;10.368;2022-10-23T08:48:49;98328.09;;;12.01;83.69
75317;BME280;63913;51.492;10.368;2022-10-23T08:51:28;98320.50;;;12.10;83.32
75317;BME280;63913;51.492;10.368;2022-10-23T08:56:38;98331.84;;;12.22;83.31
75317;BME280;63913;51.492;10.368;2022-10-23T08:59:21;98327.63;;;12.28;83.74
75317;BME280;63913;51.492;10.368;2022-10-23T09:01:59;98329.41;;;12.32;83.13
75317;BME280;63913;51.492;10.368;2022-10-23T09:04:25;98328.66;;;12.40;83.37
75317;BME280;63913;51.492;10.368;2022-10-23T09:12:26;98312.53;;;12.59;83.03
75317;BME280;63913;51.492;10.368;2022-10-23T09:17:32;98319.56;;;12.74;82.27
75317;BME280;63913;51.492;10.368;2022-10-23T09:22:29;98306.84;;;12.92;81.38
75317;BME280;63913;51.492;10.368;2022-10-23T09:24:55;98300.94;;;13.06;81.38
75317;BME280;63913;51.492;10.368;2022-10-23T09:27:20;98294.22;;;13.17;80.79
75317;BME280;63913;51.492;10.368;2022-10-23T09:29:51;98302.00;;;13.21;80.54
75317;BME280;63913;51.492;10.368;2022-10-23T09:32:17;98302.91;;;13.28;81.22
75317;BME280;63913;51.492;10.368;2022-10-23T09:34:52;98306.44;;;13.36;80.37
75317;BME280;63913;51.492;10.368;2022-10-23T09:37:31;98304.78;;;13.47;80.71
75317;BME280;63913;51.492;10.368;2022-10-23T09:40:03;98308.28;;;13.55;79.64
75317;BME280;63913;51.492;10.368;2022-10-23T09:42:36;98314.41;;;13.68;79.72
75317;BME280;63913;51.492;10.368;2022-10-23T09:45:02;98315.34;;;13.81;78.96
75317;BME280;63913;51.492;10.368;2022-10-23T09:47:27;98313.69;;;13.89;78.59
75317;BME280;63913;51.492;10.368;2022-10-23T09:49:54;98308.59;;;14.01;78.31
75317;BME280;63913;51.492;10.368;2022-10-23T09:52:23;98312.03;;;14.01;78.27
75317;BME280;63913;51.492;10.368;2022-10-23T09:54:52;98303.44;;;14.05;78.18
75317;BME280;63913;51.492;10.368;2022-10-23T09:57:38;98306.94;;;14.15;78.42
75317;BME280;63913;51.492;10.368;2022-10-23T10:02:40;98311.31;;;14.30;77.57
75317;BME280;63913;51.492;10.368;2022-10-23T10:05:27;98302.78;;;14.40;77.21
75317;BME280;63913;51.492;10.368;2022-10-23T10:07:57;98282.97;;;14.48;76.81
75317;BME280;63913;51.492;10.368;2022-10-23T10:10:26;98281.22;;;14.51;76.13
75317;BME280;63913;51.492;10.368;2022-10-23T10:12:57;98280.41;;;14.56;76.09
75317;BME280;63913;51.492;10.368;2022-10-23T10:15:30;98286.44;;;14.56;76.03
75317;BME280;63913;51.492;10.368;2022-10-23T10:18:08;98288.16;;;14.56;75.97
75317;BME280;63913;51.492;10.368;2022-10-23T10:20:52;98286.44;;;14.55;75.58
75317;BME280;63913;51.492;10.368;2022-10-23T10:31:28;98276.06;;;14.53;76.22
75317;BME280;63913;51.492;10.368;2022-10-23T10:34:35;98275.25;;;14.63;76.43
75317;BME280;63913;51.492;10.368;2022-10-23T10:55:50;98247.69;;;15.21;73.70
75317;BME280;63913;51.492;10.368;2022-10-23T10:58:29;98249.44;;;15.22;74.54
75317;BME280;63913;51.492;10.368;2022-10-23T11:01:04;98245.97;;;15.25;74.29
75317;BME280;63913;51.492;10.368;2022-10-23T11:06:02;98245.97;;;15.31;73.73
75317;BME280;63913;51.492;10.368;2022-10-23T11:08:37;98233.88;;;15.25;74.21
75317;BME280;63913;51.492;10.368;2022-10-23T11:11:27;98234.75;;;15.27;75.16
75317;BME280;63913;51.492;10.368;2022-10-23T11:13:51;98233.88;;;15.28;74.80
75317;BME280;63913;51.492;10.368;2022-10-23T11:16:27;98225.25;;;15.31;74.47
75317;BME280;63913;51.492;10.368;2022-10-23T11:19:06;98216.59;;;15.37;73.46
75317;BME280;63913;51.492;10.368;2022-10-23T11:21:48;98217.47;;;15.36;73.37
75317;BME280;63913;51.492;10.368;2022-10-23T11:27:22;98204.50;;;15.39;74.45
75317;BME280;63913;51.492;10.368;2022-10-23T11:30:07;98198.44;;;15.43;74.08
75317;BME280;63913;51.492;10.368;2022-10-23T11:40:49;98191.56;;;15.54;72.20
75317;BME280;63913;51.492;10.368;2022-10-23T11:43:54;98171.69;;;15.56;72.03
75317;BME280;63913;51.492;10.368;2022-10-23T11:48:48;98163.84;;;15.68;69.39
75317;BME280;63913;51.492;10.368;2022-10-23T11:54:19;98160.38;;;15.78;69.32
75317;BME280;63913;51.492;10.368;2022-10-23T12:02:33;98142.22;;;15.78;69.23
75317;BME280;63913;51.492;10.368;2022-10-23T12:05:06;98137.91;;;15.80;69.43
75317;BME280;63913;51.492;10.368;2022-10-23T12:07:35;98134.41;;;15.83;68.59
75317;BME280;63913;51.492;10.368;2022-10-23T12:10:16;98142.22;;;15.78;69.27
75317;BME280;63913;51.492;10.368;2022-10-23T12:12:54;98132.72;;;15.76;69.76
75317;BME280;63913;51.492;10.368;2022-10-23T12:15:19;98131.00;;;15.78;69.56
75317;BME280;63913;51.492;10.368;2022-10-23T12:17:48;98119.75;;;15.76;71.08
75317;BME280;63913;51.492;10.368;2022-10-23T12:20:22;98120.63;;;15.75;70.33
75317;BME280;63913;51.492;10.368;2022-10-23T12:23:01;98112.03;;;15.73;69.84
75317;BME280;63913;51.492;10.368;2022-10-23T12:28:39;98111.19;;;15.64;72.13
75317;BME280;63913;51.492;10.368;2022-10-23T12:38:51;98090.53;;;15.40;75.47
75317;BME280;63913;51.492;10.368;2022-10-23T12:41:27;98090.50;;;15.36;75.64
75317;BME280;63913;51.492;10.368;2022-10-23T12:43:56;98085.34;;;15.34;75.39
75317;BME280;63913;51.492;10.368;2022-10-23T12:46:27;98088.81;;;15.30;76.10
75317;BME280;63913;51.492;10.368;2022-10-23T12:48:55;98077.59;;;15.25;76.11
75317;BME280;63913;51.492;10.368;2022-10-23T12:51:32;98084.53;;;15.21;75.92
75317;BME280;63913;51.492;10.368;2022-10-23T12:54:02;98084.53;;;15.23;74.87
75317;BME280;63913;51.492;10.368;2022-10-23T12:56:33;98089.72;;;15.21;74.56
75317;BME280;63913;51.492;10.368;2022-10-23T12:58:59;98088.84;;;15.22;74.99
75317;BME280;63913;51.492;10.368;2022-10-23T13:01:31;98092.28;;;15.23;75.39
75317;BME280;63913;51.492;10.368;2022-10-23T13:04:17;98084.53;;;15.23;74.72
75317;BME280;63913;51.492;10.368;2022-10-23T13:06:46;98085.34;;;15.25;74.16
75317;BME280;63913;51.492;10.368;2022-10-23T13:09:30;98082.78;;;15.25;74.98
75317;BME280;63913;51.492;10.368;2022-10-23T13:11:57;98079.31;;;15.24;74.91
75317;BME280;63913;51.492;10.368;2022-10-23T13:14:53;98085.38;;;15.28;73.87
75317;BME280;63913;51.492;10.368;2022-10-23T13:17:19;98075.00;;;15.30;73.62
75317;BME280;63913;51.492;10.368;2022-10-23T13:19:44;98062.91;;;15.30;73.90
75317;BME280;63913;51.492;10.368;2022-10-23T13:22:18;98066.38;;;15.31;73.86
75317;BME280;63913;51.492;10.368;2022-10-23T13:24:45;98059.47;;;15.30;73.52
75317;BME280;63913;51.492;10.368;2022-10-23T13:27:37;98058.59;;;15.29;73.06
75317;BME280;63913;51.492;10.368;2022-10-23T13:30:02;98047.38;;;15.27;72.92
75317;BME280;63913;51.492;10.368;2022-10-23T13:32:29;98054.28;;;15.30;73.31
75317;BME280;63913;51.492;10.368;2022-10-23T13:34:56;98049.97;;;15.32;72.02
75317;BME280;63913;51.492;10.368;2022-10-23T13:37:27;98046.50;;;15.31;72.57
75317;BME280;63913;51.492;10.368;2022-10-23T13:40:06;98049.06;;;15.33;71.13
75317;BME280;63913;51.492;10.368;2022-10-23T13:42:43;98049.97;;;15.32;71.77
75317;BME280;63913;51.492;10.368;2022-10-23T13:45:15;98054.28;;;15.28;72.06
75317;BME280;63913;51.492;10.368;2022-10-23T13:47:42;98049.09;;;15.26;71.76
75317;BME280;63913;51.492;10.368;2022-10-23T13:50:07;98044.78;;;15.25;72.45
75317;BME280;63913;51.492;10.368;2022-10-23T13:52:37;98053.41;;;15.24;72.03
75317;BME280;63913;51.492;10.368;2022-10-23T13:55:14;98057.75;;;15.24;71.42
75317;BME280;63913;51.492;10.368;2022-10-23T13:57:42;98058.63;;;15.21;71.75
75317;BME280;63913;51.492;10.368;2022-10-23T14:00:08;98050.00;;;15.22;72.01
75317;BME280;63913;51.492;10.368;2022-10-23T14:02:34;98029.28;;;15.18;72.80
75317;BME280;63913;51.492;10.368;2022-10-23T14:04:59;98018.91;;;15.18;71.65
75317;BME280;63913;51.492;10.368;2022-10-23T14:07:24;98010.28;;;15.20;71.63
75317;BME280;63913;51.492;10.368;2022-10-23T14:09:50;98009.41;;;15.18;72.81
75317;BME280;63913;51.492;10.368;2022-10-23T14:12:15;98002.53;;;15.16;73.33
75317;BME280;63913;51.492;10.368;2022-10-23T14:14:40;97988.72;;;15.12;74.40
75317;BME280;63913;51.492;10.368;2022-10-23T14:17:06;97978.38;;;15.12;73.99
75317;BME280;63913;51.492;10.368;2022-10-23T14:19:34;97975.78;;;15.12;73.66
75317;BME280;63913;51.492;10.368;2022-10-23T14:21:59;97984.41;;;15.11;73.28
75317;BME280;63913;51.492;10.368;2022-10-23T14:24:25;97991.31;;;15.15;73.17
75317;BME280;63913;51.492;10.368;2022-10-23T14:26:50;97986.97;;;15.19;73.37
75317;BME280;63913;51.492;10.368;2022-10-23T14:29:16;97991.28;;;15.21;73.27
75317;BME280;63913;51.492;10.368;2022-10-23T14:31:41;97980.94;;;15.23;73.35
75317;BME280;63913;51.492;10.368;2022-10-23T14:34:07;97964.53;;;15.24;72.85
75317;BME280;63913;51.492;10.368;2022-10-23T14:36:32;97965.34;;;15.24;71.41
75317;BME280;63913;51.492;10.368;2022-10-23T14:38:58;97967.94;;;15.29;71.31
75317;BME280;63913;51.492;10.368;2022-10-23T14:41:25;97960.13;;;15.35;70.75
75317;BME280;63913;51.492;10.368;2022-10-23T14:43:52;97953.22;;;15.37;70.89
75317;BME280;63913;51.492;10.368;2022-10-23T14:46:21;97948.00;;;15.42;70.84